sensor_id;sensor_type;location;lat;lon;timestamp;pressure;altitude;pressure_sealevel;temperature;humidity
55315;BME280;41619;42.816;23.226;2023-02-28T00:00:15;96011.81;;;4.51;79.41
55315;BME280;41619;42.816;23.226;2023-02-28T00:02:42;96005.22;;;4.43;79.65
55315;BME280;41619;42.816;23.226;2023-02-28T00:05:10;96007.59;;;4.36;79.49
55315;BME280;41619;42.816;23.226;2023-02-28T00:07:36;96017.47;;;4.32;79.86
55315;BME280;41619;42.816;23.226;2023-02-28T00:10:03;96019.50;;;4.26;80.02
55315;BME280;41619;42.816;23.226;2023-02-28T00:12:29;96015.50;;;4.24;79.59
55315;BME280;41619;42.816;23.226;2023-02-28T00:14:54;96014.53;;;4.20;80.09
55315;BME280;41619;42.816;23.226;2023-02-28T00:17:20;96023.28;;;4.17;80.43
55315;BME280;41619;42.816;23.226;2023-02-28T00:19:51;96018.78;;;4.12;80.12
55315;BME280;41619;42.816;23.226;2023-02-28T00:22:20;96025.13;;;4.08;80.13
55315;BME280;41619;42.816;23.226;2023-02-28T00:24:46;96034.97;;;4.04;80.37
55315;BME280;41619;42.816;23.226;2023-02-28T00:27:12;96037.50;;;4.00;80.08
55315;BME280;41619;42.816;23.226;2023-02-28T00:29:38;96039.41;;;4.00;80.46
55315;BME280;41619;42.816;23.226;2023-02-28T00:32:05;96033.19;;;3.99;80.41
55315;BME280;41619;42.816;23.226;2023-02-28T00:34:31;96032.22;;;3.95;80.36
55315;BME280;41619;42.816;23.226;2023-02-28T00:36:57;96037.97;;;3.93;80.00
55315;BME280;41619;42.816;23.226;2023-02-28T00:39:23;96042.38;;;3.89;80.38
55315;BME280;41619;42.816;23.226;2023-02-28T00:41:48;96041.38;;;3.85;80.34
55315;BME280;41619;42.816;23.226;2023-02-28T00:44:13;96034.38;;;3.84;80.42
55315;BME280;41619;42.816;23.226;2023-02-28T00:46:39;96033.56;;;3.84;80.48
55315;BME280;41619;42.816;23.226;2023-02-28T00:49:04;96040.41;;;3.81;80.08
55315;BME280;41619;42.816;23.226;2023-02-28T00:51:30;96040.91;;;3.83;79.97
55315;BME280;41619;42.816;23.226;2023-02-28T00:53:55;96034.25;;;3.89;80.57
55315;BME280;41619;42.816;23.226;2023-02-28T00:56:20;96030.16;;;3.92;80.33
55315;BME280;41619;42.816;23.226;2023-02-28T00:58:46;96035.44;;;3.97;80.07
55315;BME280;41619;42.816;23.226;2023-02-28T01:01:11;96030.50;;;3.99;80.46
55315;BME280;41619;42.816;23.226;2023-02-28T01:03:37;96030.19;;;4.01;79.93
55315;BME280;41619;42.816;23.226;2023-02-28T01:06:02;96027.47;;;4.01;79.51
55315;BME280;41619;42.816;23.226;2023-02-28T01:08:28;96024.47;;;4.02;79.98
55315;BME280;41619;42.816;23.226;2023-02-28T01:10:53;96021.13;;;4.05;79.77
55315;BME280;41619;42.816;23.226;2023-02-28T01:13:20;96015.88;;;4.09;80.23
55315;BME280;41619;42.816;23.226;2023-02-28T01:15:50;96017.50;;;4.10;80.12
55315;BME280;41619;42.816;23.226;2023-02-28T01:18:19;96012.56;;;4.12;79.87
55315;BME280;41619;42.816;23.226;2023-02-28T01:20:44;96012.56;;;4.12;79.99
55315;BME280;41619;42.816;23.226;2023-02-28T01:23:11;96014.81;;;4.10;80.17
55315;BME280;41619;42.816;23.226;2023-02-28T01:25:37;96010.78;;;4.07;80.14
55315;BME280;41619;42.816;23.226;2023-02-28T01:28:03;96016.19;;;4.07;80.07
55315;BME280;41619;42.816;23.226;2023-02-28T01:30:28;96013.47;;;4.07;80.17
55315;BME280;41619;42.816;23.226;2023-02-28T01:32:54;96020.81;;;4.07;80.40
55315;BME280;41619;42.816;23.226;2023-02-28T01:35:19;96021.31;;;4.09;80.43
55315;BME280;41619;42.816;23.226;2023-02-28T01:37:45;96015.41;;;4.07;80.46
55315;BME280;41619;42.816;23.226;2023-02-28T01:40:11;96014.00;;;4.09;80.60
55315;BME280;41619;42.816;23.226;2023-02-28T01:42:37;96018.59;;;4.09;80.45
55315;BME280;41619;42.816;23.226;2023-02-28T01:45:21;96017.78;;;4.08;80.53
55315;BME280;41619;42.816;23.226;2023-02-28T01:47:49;96011.09;;;4.06;80.59
55315;BME280;41619;42.816;23.226;2023-02-28T01:50:23;96009.97;;;4.07;80.53
55315;BME280;41619;42.816;23.226;2023-02-28T01:52:50;96020.00;;;4.06;80.73
55315;BME280;41619;42.816;23.226;2023-02-28T01:55:18;96025.75;;;4.05;80.44
55315;BME280;41619;42.816;23.226;2023-02-28T01:57:50;96016.97;;;3.99;80.61
55315;BME280;41619;42.816;23.226;2023-02-28T02:00:20;96019.00;;;3.93;80.49
55315;BME280;41619;42.816;23.226;2023-02-28T02:02:48;96021.50;;;3.90;80.33
55315;BME280;41619;42.816;23.226;2023-02-28T02:05:27;96022.13;;;3.87;80.56
55315;BME280;41619;42.816;23.226;2023-02-28T02:07:56;96013.34;;;3.81;80.60
55315;BME280;41619;42.816;23.226;2023-02-28T02:13:08;96023.31;;;3.72;80.79
55315;BME280;41619;42.816;23.226;2023-02-28T02:15:43;96020.88;;;3.71;81.12
55315;BME280;41619;42.816;23.226;2023-02-28T02:18:17;96031.72;;;3.71;80.57
55315;BME280;41619;42.816;23.226;2023-02-28T02:27:06;96022.22;;;3.73;81.11
55315;BME280;41619;42.816;23.226;2023-02-28T02:37:47;96025.41;;;3.75;81.04
55315;BME280;41619;42.816;23.226;2023-02-28T02:45:30;96023.91;;;3.69;81.21
55315;BME280;41619;42.816;23.226;2023-02-28T02:48:01;96023.72;;;3.65;80.93
55315;BME280;41619;42.816;23.226;2023-02-28T02:50:37;96027.84;;;3.63;81.09
55315;BME280;41619;42.816;23.226;2023-02-28T02:53:05;96032.78;;;3.61;80.90
55315;BME280;41619;42.816;23.226;2023-02-28T02:55:35;96028.16;;;3.61;81.22
55315;BME280;41619;42.816;23.226;2023-02-28T02:58:08;96034.56;;;3.65;81.12
55315;BME280;41619;42.816;23.226;2023-02-28T03:00:49;96036.84;;;3.72;81.28
55315;BME280;41619;42.816;23.226;2023-02-28T03:03:17;96036.72;;;3.77;81.29
55315;BME280;41619;42.816;23.226;2023-02-28T03:05:49;96034.00;;;3.77;81.11
55315;BME280;41619;42.816;23.226;2023-02-28T03:08:16;96026.50;;;3.74;81.01
55315;BME280;41619;42.816;23.226;2023-02-28T03:10:43;96031.13;;;3.74;81.01
55315;BME280;41619;42.816;23.226;2023-02-28T03:24:18;96057.81;;;3.89;80.92
55315;BME280;41619;42.816;23.226;2023-02-28T03:26:56;96058.91;;;3.88;80.94
55315;BME280;41619;42.816;23.226;2023-02-28T03:29:34;96058.91;;;3.88;80.96
55315;BME280;41619;42.816;23.226;2023-02-28T03:32:06;96053.31;;;3.84;80.84
55315;BME280;41619;42.816;23.226;2023-02-28T03:34:38;96061.44;;;3.84;80.99
55315;BME280;41619;42.816;23.226;2023-02-28T03:37:13;96064.97;;;3.85;81.00
55315;BME280;41619;42.816;23.226;2023-02-28T03:39:47;96071.16;;;3.85;80.92
55315;BME280;41619;42.816;23.226;2023-02-28T03:42:17;96070.06;;;3.86;81.17
55315;BME280;41619;42.816;23.226;2023-02-28T03:44:51;96079.19;;;3.90;80.83
55315;BME280;41619;42.816;23.226;2023-02-28T03:47:30;96080.50;;;3.93;80.89
55315;BME280;41619;42.816;23.226;2023-02-28T03:50:01;96074.06;;;3.89;80.70
55315;BME280;41619;42.816;23.226;2023-02-28T03:52:33;96082.00;;;3.85;80.30
55315;BME280;41619;42.816;23.226;2023-02-28T03:55:05;96077.22;;;3.82;80.42
55315;BME280;41619;42.816;23.226;2023-02-28T04:02:54;96085.81;;;3.84;80.58
55315;BME280;41619;42.816;23.226;2023-02-28T04:05:20;96087.09;;;3.87;80.42
55315;BME280;41619;42.816;23.226;2023-02-28T04:07:46;96079.28;;;3.85;80.40
55315;BME280;41619;42.816;23.226;2023-02-28T04:10:12;96084.53;;;3.82;80.55
55315;BME280;41619;42.816;23.226;2023-02-28T04:12:38;96083.53;;;3.78;80.55
55315;BME280;41619;42.816;23.226;2023-02-28T04:15:04;96095.97;;;3.79;80.29
55315;BME280;41619;42.816;23.226;2023-02-28T04:17:30;96091.34;;;3.79;80.55
55315;BME280;41619;42.816;23.226;2023-02-28T04:19:55;96096.16;;;3.82;80.30
55315;BME280;41619;42.816;23.226;2023-02-28T04:22:22;96103.16;;;3.83;80.47
55315;BME280;41619;42.816;23.226;2023-02-28T04:24:47;96100.97;;;3.85;80.46
55315;BME280;41619;42.816;23.226;2023-02-28T04:27:13;96102.56;;;3.86;80.23
55315;BME280;41619;42.816;23.226;2023-02-28T04:29:40;96101.44;;;3.87;80.46
55315;BME280;41619;42.816;23.226;2023-02-28T04:32:10;96103.56;;;3.90;80.37
55315;BME280;41619;42.816;23.226;2023-02-28T04:34:35;96104.06;;;3.92;81.00
55315;BME280;41619;42.816;23.226;2023-02-28T04:37:01;96091.81;;;3.95;80.85
55315;BME280;41619;42.816;23.226;2023-02-28T04:39:28;96093.09;;;3.98;80.28
55315;BME280;41619;42.816;23.226;2023-02-28T04:41:55;96088.97;;;4.00;80.88
55315;BME280;41619;42.816;23.226;2023-02-28T04:44:20;96093.47;;;4.05;80.69
55315;BME280;41619;42.816;23.226;2023-02-28T04:46:47;96082.81;;;4.08;80.75
55315;BME280;41619;42.816;23.226;2023-02-28T04:49:13;96088.91;;;4.14;81.03
55315;BME280;41619;42.816;23.226;2023-02-28T04:51:39;96091.97;;;4.21;81.00
55315;BME280;41619;42.816;23.226;2023-02-28T04:54:05;96091.97;;;4.21;80.90
55315;BME280;41619;42.816;23.226;2023-02-28T04:56:30;96099.63;;;4.19;80.88
55315;BME280;41619;42.816;23.226;2023-02-28T04:58:56;96100.56;;;4.14;80.78
55315;BME280;41619;42.816;23.226;2023-02-28T05:01:28;96101.28;;;4.06;80.55
55315;BME280;41619;42.816;23.226;2023-02-28T05:03:55;96102.03;;;3.98;80.45
55315;BME280;41619;42.816;23.226;2023-02-28T05:06:23;96112.97;;;3.93;80.41
55315;BME280;41619;42.816;23.226;2023-02-28T05:08:49;96115.78;;;3.88;80.58
55315;BME280;41619;42.816;23.226;2023-02-28T05:11:29;96115.72;;;3.79;80.22
55315;BME280;41619;42.816;23.226;2023-02-28T05:13:58;96115.53;;;3.76;80.89
55315;BME280;41619;42.816;23.226;2023-02-28T05:16:24;96110.44;;;3.74;80.53
55315;BME280;41619;42.816;23.226;2023-02-28T05:18:49;96115.22;;;3.77;80.55
55315;BME280;41619;42.816;23.226;2023-02-28T05:23:52;96123.31;;;3.91;80.71
55315;BME280;41619;42.816;23.226;2023-02-28T05:26:17;96124.81;;;3.97;80.46
55315;BME280;41619;42.816;23.226;2023-02-28T05:28:43;96134.88;;;4.05;81.02
55315;BME280;41619;42.816;23.226;2023-02-28T05:31:11;96138.28;;;4.11;80.80
55315;BME280;41619;42.816;23.226;2023-02-28T05:33:37;96138.66;;;4.18;80.81
55315;BME280;41619;42.816;23.226;2023-02-28T05:36:03;96130.41;;;4.23;81.13
55315;BME280;41619;42.816;23.226;2023-02-28T05:38:29;96139.50;;;4.27;80.95
55315;BME280;41619;42.816;23.226;2023-02-28T05:40:54;96143.22;;;4.31;81.11
55315;BME280;41619;42.816;23.226;2023-02-28T05:43:20;96137.19;;;4.34;81.08
55315;BME280;41619;42.816;23.226;2023-02-28T05:45:45;96142.78;;;4.38;81.12
55315;BME280;41619;42.816;23.226;2023-02-28T05:48:10;96146.47;;;4.42;81.46
55315;BME280;41619;42.816;23.226;2023-02-28T05:50:36;96148.56;;;4.45;81.25
55315;BME280;41619;42.816;23.226;2023-02-28T05:53:02;96147.66;;;4.49;81.30
55315;BME280;41619;42.816;23.226;2023-02-28T05:55:27;96142.72;;;4.51;81.29
55315;BME280;41619;42.816;23.226;2023-02-28T05:57:52;96142.59;;;4.56;81.35
55315;BME280;41619;42.816;23.226;2023-02-28T06:00:18;96148.97;;;4.61;81.19
55315;BME280;41619;42.816;23.226;2023-02-28T06:02:43;96147.75;;;4.67;81.12
55315;BME280;41619;42.816;23.226;2023-02-28T06:05:16;96148.91;;;4.74;81.32
55315;BME280;41619;42.816;23.226;2023-02-28T06:07:42;96147.97;;;4.79;81.10
55315;BME280;41619;42.816;23.226;2023-02-28T06:10:11;96150.56;;;4.84;81.08
55315;BME280;41619;42.816;23.226;2023-02-28T06:12:37;96155.84;;;4.89;80.46
55315;BME280;41619;42.816;23.226;2023-02-28T06:15:03;96152.19;;;4.94;80.86
55315;BME280;41619;42.816;23.226;2023-02-28T06:17:29;96160.19;;;4.99;80.86
55315;BME280;41619;42.816;23.226;2023-02-28T06:19:54;96159.56;;;5.02;81.08
55315;BME280;41619;42.816;23.226;2023-02-28T06:22:19;96158.16;;;5.04;81.01
55315;BME280;41619;42.816;23.226;2023-02-28T06:24:45;96166.00;;;5.06;80.72
55315;BME280;41619;42.816;23.226;2023-02-28T06:27:10;96170.16;;;5.12;81.00
55315;BME280;41619;42.816;23.226;2023-02-28T06:29:36;96164.59;;;5.17;81.05
55315;BME280;41619;42.816;23.226;2023-02-28T06:32:04;96171.28;;;5.20;81.24
55315;BME280;41619;42.816;23.226;2023-02-28T06:34:30;96171.00;;;5.21;80.81
55315;BME280;41619;42.816;23.226;2023-02-28T06:36:55;96166.38;;;5.22;80.70
55315;BME280;41619;42.816;23.226;2023-02-28T06:39:21;96169.56;;;5.24;80.97
55315;BME280;41619;42.816;23.226;2023-02-28T06:41:47;96165.13;;;5.28;81.04
55315;BME280;41619;42.816;23.226;2023-02-28T06:44:15;96163.06;;;5.33;81.12
55315;BME280;41619;42.816;23.226;2023-02-28T06:46:42;96165.94;;;5.37;81.03
55315;BME280;41619;42.816;23.226;2023-02-28T06:49:08;96164.66;;;5.34;81.05
55315;BME280;41619;42.816;23.226;2023-02-28T06:51:34;96173.91;;;5.33;80.97
55315;BME280;41619;42.816;23.226;2023-02-28T06:54:00;96167.38;;;5.34;80.74
55315;BME280;41619;42.816;23.226;2023-02-28T06:56:26;96168.16;;;5.35;80.23
55315;BME280;41619;42.816;23.226;2023-02-28T06:58:51;96168.97;;;5.35;80.88
55315;BME280;41619;42.816;23.226;2023-02-28T07:01:20;96176.00;;;5.36;80.73
55315;BME280;41619;42.816;23.226;2023-02-28T07:03:47;96174.88;;;5.37;80.49
55315;BME280;41619;42.816;23.226;2023-02-28T07:06:18;96179.03;;;5.35;80.63
55315;BME280;41619;42.816;23.226;2023-02-28T07:08:44;96182.53;;;5.35;80.62
55315;BME280;41619;42.816;23.226;2023-02-28T07:11:09;96182.84;;;5.34;80.81
55315;BME280;41619;42.816;23.226;2023-02-28T07:13:35;96181.75;;;5.35;80.77
55315;BME280;41619;42.816;23.226;2023-02-28T07:16:04;96173.44;;;5.31;80.99
55315;BME280;41619;42.816;23.226;2023-02-28T07:18:30;96181.88;;;5.30;80.63
55315;BME280;41619;42.816;23.226;2023-02-28T07:20:55;96188.59;;;5.32;80.75
55315;BME280;41619;42.816;23.226;2023-02-28T07:23:21;96181.75;;;5.35;80.63
55315;BME280;41619;42.816;23.226;2023-02-28T07:25:47;96186.06;;;5.36;80.21
55315;BME280;41619;42.816;23.226;2023-02-28T07:28:13;96184.63;;;5.38;80.85
55315;BME280;41619;42.816;23.226;2023-02-28T07:30:39;96177.94;;;5.44;80.17
55315;BME280;41619;42.816;23.226;2023-02-28T07:33:05;96175.41;;;5.48;80.68
55315;BME280;41619;42.816;23.226;2023-02-28T07:35:30;96178.28;;;5.52;80.56
55315;BME280;41619;42.816;23.226;2023-02-28T07:38:00;96172.41;;;5.58;80.68
55315;BME280;41619;42.816;23.226;2023-02-28T07:40:26;96172.69;;;5.57;80.64
55315;BME280;41619;42.816;23.226;2023-02-28T07:42:51;96179.72;;;5.58;80.45
55315;BME280;41619;42.816;23.226;2023-02-28T07:45:17;96178.31;;;5.60;80.24
55315;BME280;41619;42.816;23.226;2023-02-28T07:47:43;96181.69;;;5.66;80.50
55315;BME280;41619;42.816;23.226;2023-02-28T07:50:12;96173.69;;;5.69;80.71
55315;BME280;41619;42.816;23.226;2023-02-28T07:52:38;96176.25;;;5.74;80.78
55315;BME280;41619;42.816;23.226;2023-02-28T07:55:05;96175.34;;;5.79;80.24
55315;BME280;41619;42.816;23.226;2023-02-28T07:57:32;96173.25;;;5.85;80.33
55315;BME280;41619;42.816;23.226;2023-02-28T07:59:57;96172.28;;;5.89;80.75
55315;BME280;41619;42.816;23.226;2023-02-28T08:02:22;96170.09;;;5.91;80.17
55315;BME280;41619;42.816;23.226;2023-02-28T08:04:48;96170.56;;;5.93;80.96
55315;BME280;41619;42.816;23.226;2023-02-28T08:07:14;96179.22;;;5.95;80.18
55315;BME280;41619;42.816;23.226;2023-02-28T08:09:41;96175.56;;;6.00;80.58
55315;BME280;41619;42.816;23.226;2023-02-28T08:12:08;96175.72;;;6.03;80.80
55315;BME280;41619;42.816;23.226;2023-02-28T08:14:34;96182.56;;;6.10;80.58
55315;BME280;41619;42.816;23.226;2023-02-28T08:16:59;96180.53;;;6.15;80.56
55315;BME280;41619;42.816;23.226;2023-02-28T08:19:25;96183.41;;;6.19;80.66
55315;BME280;41619;42.816;23.226;2023-02-28T08:21:50;96189.47;;;6.24;80.08
55315;BME280;41619;42.816;23.226;2023-02-28T08:24:16;96190.75;;;6.27;80.36
55315;BME280;41619;42.816;23.226;2023-02-28T08:26:41;96192.03;;;6.29;80.66
55315;BME280;41619;42.816;23.226;2023-02-28T08:29:07;96182.94;;;6.34;80.15
55315;BME280;41619;42.816;23.226;2023-02-28T08:31:32;96192.03;;;6.38;80.56
55315;BME280;41619;42.816;23.226;2023-02-28T08:33:58;96190.28;;;6.42;80.04
55315;BME280;41619;42.816;23.226;2023-02-28T08:36:25;96188.19;;;6.48;80.51
55315;BME280;41619;42.816;23.226;2023-02-28T08:38:50;96178.28;;;6.52;80.21
55315;BME280;41619;42.816;23.226;2023-02-28T08:41:16;96175.88;;;6.59;80.39
55315;BME280;41619;42.816;23.226;2023-02-28T08:43:41;96180.81;;;6.65;80.35
55315;BME280;41619;42.816;23.226;2023-02-28T08:46:08;96172.97;;;6.73;80.36
55315;BME280;41619;42.816;23.226;2023-02-28T08:48:35;96178.25;;;6.78;80.35
55315;BME280;41619;42.816;23.226;2023-02-28T08:51:14;96184.47;;;6.78;80.21
55315;BME280;41619;42.816;23.226;2023-02-28T08:53:42;96184.63;;;6.82;80.20
55315;BME280;41619;42.816;23.226;2023-02-28T08:56:11;96183.31;;;6.88;80.20
55315;BME280;41619;42.816;23.226;2023-02-28T08:58:37;96183.97;;;6.93;80.15
55315;BME280;41619;42.816;23.226;2023-02-28T09:01:14;96187.63;;;6.97;80.01
55315;BME280;41619;42.816;23.226;2023-02-28T09:03:41;96184.72;;;7.03;79.85
55315;BME280;41619;42.816;23.226;2023-02-28T09:06:07;96185.06;;;7.10;79.95
55315;BME280;41619;42.816;23.226;2023-02-28T09:08:33;96178.63;;;7.14;79.50
55315;BME280;41619;42.816;23.226;2023-02-28T09:10:58;96174.91;;;7.19;79.43
55315;BME280;41619;42.816;23.226;2023-02-28T09:13:25;96173.94;;;7.23;79.51
55315;BME280;41619;42.816;23.226;2023-02-28T09:15:50;96172.31;;;7.31;79.66
55315;BME280;41619;42.816;23.226;2023-02-28T09:18:16;96173.41;;;7.39;79.59
55315;BME280;41619;42.816;23.226;2023-02-28T09:20:42;96174.84;;;7.45;79.60
55315;BME280;41619;42.816;23.226;2023-02-28T09:23:09;96169.66;;;7.52;79.38
55315;BME280;41619;42.816;23.226;2023-02-28T09:25:35;96169.13;;;7.58;79.36
55315;BME280;41619;42.816;23.226;2023-02-28T09:28:01;96166.72;;;7.66;79.77
55315;BME280;41619;42.816;23.226;2023-02-28T09:30:27;96169.25;;;7.71;79.22
55315;BME280;41619;42.816;23.226;2023-02-28T09:32:53;96168.59;;;7.74;78.81
55315;BME280;41619;42.816;23.226;2023-02-28T09:35:20;96169.50;;;7.78;79.44
55315;BME280;41619;42.816;23.226;2023-02-28T09:37:48;96167.88;;;7.85;79.05
55315;BME280;41619;42.816;23.226;2023-02-28T09:40:14;96167.47;;;7.96;79.16
55315;BME280;41619;42.816;23.226;2023-02-28T09:42:44;96153.47;;;8.06;79.33
55315;BME280;41619;42.816;23.226;2023-02-28T09:45:30;96155.78;;;8.16;78.77
55315;BME280;41619;42.816;23.226;2023-02-28T09:48:12;96151.22;;;8.29;78.57
55315;BME280;41619;42.816;23.226;2023-02-28T09:50:47;96155.09;;;8.48;78.08
55315;BME280;41619;42.816;23.226;2023-02-28T09:53:22;96153.34;;;8.65;78.12
55315;BME280;41619;42.816;23.226;2023-02-28T09:55:55;96155.50;;;8.71;77.86
55315;BME280;41619;42.816;23.226;2023-02-28T09:58:32;96152.59;;;8.76;77.89
55315;BME280;41619;42.816;23.226;2023-02-28T10:01:21;96146.81;;;8.90;78.08
55315;BME280;41619;42.816;23.226;2023-02-28T10:03:57;96141.59;;;8.97;77.77
55315;BME280;41619;42.816;23.226;2023-02-28T10:06:30;96136.50;;;9.08;77.82
55315;BME280;41619;42.816;23.226;2023-02-28T10:09:02;96125.63;;;9.32;77.82
55315;BME280;41619;42.816;23.226;2023-02-28T10:11:29;96128.91;;;9.62;78.02
55315;BME280;41619;42.816;23.226;2023-02-28T10:14:16;96119.75;;;9.95;77.03
55315;BME280;41619;42.816;23.226;2023-02-28T10:16:52;96124.28;;;10.27;76.67
55315;BME280;41619;42.816;23.226;2023-02-28T10:22:05;96106.19;;;10.23;75.81
55315;BME280;41619;42.816;23.226;2023-02-28T10:24:48;96098.09;;;10.70;75.96
55315;BME280;41619;42.816;23.226;2023-02-28T10:27:20;96094.34;;;11.06;74.72
55315;BME280;41619;42.816;23.226;2023-02-28T10:29:57;96097.97;;;10.95;73.62
55315;BME280;41619;42.816;23.226;2023-02-28T10:37:38;96093.38;;;10.55;74.08
55315;BME280;41619;42.816;23.226;2023-02-28T10:40:06;96091.53;;;10.59;74.15
55315;BME280;41619;42.816;23.226;2023-02-28T10:42:32;96089.75;;;10.79;73.96
55315;BME280;41619;42.816;23.226;2023-02-28T10:45:33;96086.06;;;11.03;72.93
55315;BME280;41619;42.816;23.226;2023-02-28T11:00:58;96068.97;;;10.93;71.72
55315;BME280;41619;42.816;23.226;2023-02-28T11:05:55;96062.19;;;11.70;72.30
55315;BME280;41619;42.816;23.226;2023-02-28T11:08:21;96054.41;;;12.07;69.96
55315;BME280;41619;42.816;23.226;2023-02-28T11:10:54;96043.28;;;11.80;68.96
55315;BME280;41619;42.816;23.226;2023-02-28T11:13:21;96046.84;;;11.49;69.19
55315;BME280;41619;42.816;23.226;2023-02-28T11:16:00;96046.09;;;11.33;69.61
55315;BME280;41619;42.816;23.226;2023-02-28T11:18:40;96047.75;;;11.53;69.82
55315;BME280;41619;42.816;23.226;2023-02-28T11:21:07;96049.81;;;11.76;69.19
55315;BME280;41619;42.816;23.226;2023-02-28T11:23:35;96038.13;;;11.95;68.88
55315;BME280;41619;42.816;23.226;2023-02-28T11:26:03;96042.50;;;11.80;68.53
55315;BME280;41619;42.816;23.226;2023-02-28T11:28:40;96046.41;;;11.63;68.69
55315;BME280;41619;42.816;23.226;2023-02-28T11:33:55;96039.63;;;11.41;69.16
55315;BME280;41619;42.816;23.226;2023-02-28T11:36:27;96044.50;;;11.32;69.63
55315;BME280;41619;42.816;23.226;2023-02-28T11:38:55;96040.88;;;11.28;69.83
55315;BME280;41619;42.816;23.226;2023-02-28T11:46:50;96041.28;;;11.62;69.23
55315;BME280;41619;42.816;23.226;2023-02-28T11:49:58;96027.03;;;11.72;69.25
55315;BME280;41619;42.816;23.226;2023-02-28T11:52:54;96031.22;;;11.85;68.22
55315;BME280;41619;42.816;23.226;2023-02-28T11:55:49;96030.16;;;11.90;68.00
55315;BME280;41619;42.816;23.226;2023-02-28T12:01:30;96031.84;;;11.94;67.71
55315;BME280;41619;42.816;23.226;2023-02-28T12:12:32;96023.44;;;11.87;67.24
55315;BME280;41619;42.816;23.226;2023-02-28T12:27:51;96015.88;;;11.30;68.21
55315;BME280;41619;42.816;23.226;2023-02-28T12:30:58;96019.59;;;11.21;68.03
55315;BME280;41619;42.816;23.226;2023-02-28T12:33:16;96017.28;;;11.23;68.31
55315;BME280;41619;42.816;23.226;2023-02-28T12:35:52;96020.03;;;11.23;68.47
55315;BME280;41619;42.816;23.226;2023-02-28T12:38:29;96012.97;;;11.22;68.42
55315;BME280;41619;42.816;23.226;2023-02-28T12:41:14;96011.31;;;11.18;68.31
55315;BME280;41619;42.816;23.226;2023-02-28T12:43:46;96012.25;;;11.26;68.78
55315;BME280;41619;42.816;23.226;2023-02-28T12:46:23;96009.66;;;11.33;68.67
55315;BME280;41619;42.816;23.226;2023-02-28T12:48:56;96003.22;;;11.41;68.48
55315;BME280;41619;42.816;23.226;2023-02-28T12:51:24;96002.13;;;11.45;68.20
55315;BME280;41619;42.816;23.226;2023-02-28T13:02:41;95985.47;;;11.35;67.99
55315;BME280;41619;42.816;23.226;2023-02-28T13:10:56;95987.31;;;11.31;68.03
55315;BME280;41619;42.816;23.226;2023-02-28T13:13:26;95990.84;;;11.31;67.90
55315;BME280;41619;42.816;23.226;2023-02-28T13:16:08;95980.59;;;11.28;68.19
55315;BME280;41619;42.816;23.226;2023-02-28T13:18:39;95996.53;;;11.22;68.41
55315;BME280;41619;42.816;23.226;2023-02-28T13:21:09;95981.34;;;11.09;68.12
55315;BME280;41619;42.816;23.226;2023-02-28T13:26:17;95979.16;;;10.99;68.56
55315;BME280;41619;42.816;23.226;2023-02-28T13:31:14;95981.78;;;10.96;68.85
55315;BME280;41619;42.816;23.226;2023-02-28T13:34:04;95976.94;;;10.89;68.79
55315;BME280;41619;42.816;23.226;2023-02-28T13:36:32;95974.03;;;10.82;68.79
55315;BME280;41619;42.816;23.226;2023-02-28T13:39:03;95974.56;;;10.72;68.88
55315;BME280;41619;42.816;23.226;2023-02-28T13:44:10;95979.66;;;10.57;69.45
55315;BME280;41619;42.816;23.226;2023-02-28T13:51:55;95980.97;;;10.32;69.94
55315;BME280;41619;42.816;23.226;2023-02-28T14:05:00;95965.00;;;10.06;70.65
55315;BME280;41619;42.816;23.226;2023-02-28T14:07:29;95966.47;;;10.03;70.45
55315;BME280;41619;42.816;23.226;2023-02-28T14:10:05;95963.66;;;10.00;70.79
55315;BME280;41619;42.816;23.226;2023-02-28T14:17:59;95975.31;;;9.85;70.86
55315;BME280;41619;42.816;23.226;2023-02-28T14:20:27;95974.44;;;9.81;71.07
55315;BME280;41619;42.816;23.226;2023-02-28T14:23:16;95988.81;;;9.78;70.99
55315;BME280;41619;42.816;23.226;2023-02-28T14:31:22;95993.50;;;9.65;71.05
55315;BME280;41619;42.816;23.226;2023-02-28T14:36:46;95984.22;;;9.54;70.87
55315;BME280;41619;42.816;23.226;2023-02-28T14:39:16;95986.84;;;9.50;70.82
55315;BME280;41619;42.816;23.226;2023-02-28T14:41:45;95980.47;;;9.46;70.83
55315;BME280;41619;42.816;23.226;2023-02-28T14:44:24;95989.34;;;9.43;70.86
55315;BME280;41619;42.816;23.226;2023-02-28T14:46:52;95977.53;;;9.39;70.87
55315;BME280;41619;42.816;23.226;2023-02-28T14:49:22;95980.16;;;9.35;70.65
55315;BME280;41619;42.816;23.226;2023-02-28T14:52:03;95977.97;;;9.29;70.81
55315;BME280;41619;42.816;23.226;2023-02-28T14:54:31;95977.88;;;9.25;70.83
55315;BME280;41619;42.816;23.226;2023-02-28T14:56:57;95979.25;;;9.19;70.64
55315;BME280;41619;42.816;23.226;2023-02-28T14:59:32;95979.16;;;9.16;70.28
55315;BME280;41619;42.816;23.226;2023-02-28T15:02:20;95991.13;;;9.11;70.37
55315;BME280;41619;42.816;23.226;2023-02-28T15:04:57;95992.13;;;9.06;70.25
55315;BME280;41619;42.816;23.226;2023-02-28T15:07:24;95992.47;;;9.05;70.44
55315;BME280;41619;42.816;23.226;2023-02-28T15:10:24;95994.28;;;9.01;70.40
55315;BME280;41619;42.816;23.226;2023-02-28T15:13:06;95989.88;;;8.96;70.52
55315;BME280;41619;42.816;23.226;2023-02-28T15:20:55;95990.88;;;8.79;70.20
55315;BME280;41619;42.816;23.226;2023-02-28T15:23:21;95990.09;;;8.79;70.59
55315;BME280;41619;42.816;23.226;2023-02-28T15:25:48;95989.63;;;8.77;70.52
55315;BME280;41619;42.816;23.226;2023-02-28T15:28:19;95993.38;;;8.72;70.64
55315;BME280;41619;42.816;23.226;2023-02-28T15:31:00;96003.38;;;8.68;70.66
55315;BME280;41619;42.816;23.226;2023-02-28T15:33:30;96010.31;;;8.66;70.64
55315;BME280;41619;42.816;23.226;2023-02-28T15:36:12;96007.81;;;8.61;70.89
55315;BME280;41619;42.816;23.226;2023-02-28T15:38:38;96017.00;;;8.56;70.53
55315;BME280;41619;42.816;23.226;2023-02-28T15:41:04;96020.72;;;8.52;70.28
55315;BME280;41619;42.816;23.226;2023-02-28T15:43:38;96016.97;;;8.44;70.57